createdAt,value
2022-11-09T00:00:45.966Z,2.08
2022-11-09T00:03:12.461Z,2.53
2022-11-09T00:05:39.163Z,2.10
2022-11-09T00:08:06.837Z,1.60
2022-11-09T00:10:33.567Z,2.25
2022-11-09T00:13:00.412Z,4.15
2022-11-09T00:15:26.893Z,1.65
2022-11-09T00:17:53.377Z,1.35
2022-11-09T00:20:19.864Z,1.52
2022-11-09T00:22:50.111Z,1.88
2022-11-09T00:25:16.669Z,1.90
2022-11-09T00:27:43.159Z,2.13
2022-11-09T00:30:10.517Z,1.83
2022-11-09T00:32:36.985Z,3.88
2022-11-09T00:35:03.691Z,2.72
2022-11-09T00:37:30.672Z,2.65
2022-11-09T00:39:57.242Z,2.17
2022-11-09T00:42:23.648Z,2.60
2022-11-09T00:44:50.068Z,4.47
2022-11-09T00:47:16.532Z,3.25
2022-11-09T00:49:42.932Z,2.70
2022-11-09T00:52:09.334Z,1.83
2022-11-09T00:54:35.749Z,1.88
2022-11-09T00:57:02.166Z,2.78
2022-11-09T00:59:28.565Z,2.00
2022-11-09T01:01:54.988Z,1.40
2022-11-09T01:04:21.404Z,1.80
2022-11-09T01:06:47.887Z,2.08
2022-11-09T01:09:14.317Z,2.33
2022-11-09T01:11:40.761Z,1.95
2022-11-09T01:14:07.214Z,3.53
2022-11-09T01:16:33.692Z,1.85
2022-11-09T01:19:00.116Z,2.03
2022-11-09T01:21:27.320Z,2.35
2022-11-09T01:23:54.410Z,1.60
2022-11-09T01:26:21.316Z,3.00
2022-11-09T01:28:47.767Z,2.67
2022-11-09T01:31:17.310Z,1.48
2022-11-09T01:33:43.878Z,2.83
2022-11-09T01:36:12.738Z,2.97
2022-11-09T01:38:39.809Z,2.13
2022-11-09T01:41:07.337Z,1.67
2022-11-09T01:43:34.452Z,2.13
2022-11-09T01:46:03.708Z,2.08
2022-11-09T01:48:33.572Z,2.97
2022-11-09T01:51:05.300Z,1.73
2022-11-09T01:53:35.113Z,3.20
2022-11-09T01:56:04.295Z,1.95
2022-11-09T01:59:04.179Z,2.10
2022-11-09T02:01:31.574Z,2.47
2022-11-09T02:04:07.184Z,1.30
2022-11-09T02:06:34.095Z,1.25
2022-11-09T02:09:18.714Z,1.85
2022-11-09T02:11:45.118Z,3.42
2022-11-09T02:14:11.944Z,2.75
2022-11-09T02:16:38.622Z,3.47
2022-11-09T02:19:05.048Z,2.60
2022-11-09T02:21:32.146Z,2.03
2022-11-09T02:23:59.257Z,2.60
2022-11-09T02:26:36.299Z,1.20
2022-11-09T02:29:05.494Z,3.28
2022-11-09T02:31:34.243Z,1.85
2022-11-09T02:34:08.876Z,1.77
2022-11-09T02:36:35.639Z,2.13
2022-11-09T02:39:02.250Z,2.03
2022-11-09T02:41:29.878Z,2.47
2022-11-09T02:43:56.547Z,2.05
2022-11-09T02:46:25.147Z,1.67
2022-11-09T02:48:52.031Z,1.40
2022-11-09T02:51:18.419Z,1.60
2022-11-09T02:53:44.848Z,2.45
2022-11-09T02:56:11.242Z,1.85
2022-11-09T02:58:37.653Z,1.45
2022-11-09T03:01:04.161Z,1.83
2022-11-09T03:03:30.865Z,1.83
2022-11-09T03:05:57.262Z,2.75
2022-11-09T03:08:23.683Z,1.67
2022-11-09T03:10:50.098Z,2.00
2022-11-09T03:13:16.679Z,1.63
2022-11-09T03:15:43.177Z,2.35
2022-11-09T03:18:09.630Z,2.75
2022-11-09T03:20:36.146Z,2.25
2022-11-09T03:23:02.867Z,1.73
2022-11-09T03:25:29.292Z,1.33
2022-11-09T03:27:59.810Z,2.22
2022-11-09T03:30:26.766Z,1.58
2022-11-09T03:33:00.927Z,1.77
2022-11-09T03:35:27.644Z,2.58
2022-11-09T03:37:54.402Z,2.10
2022-11-09T03:40:21.170Z,1.38
2022-11-09T03:42:48.671Z,2.03
2022-11-09T03:45:16.223Z,1.15
2022-11-09T03:47:43.462Z,1.55
2022-11-09T03:50:10.365Z,2.67
2022-11-09T03:52:37.010Z,1.23
2022-11-09T03:55:04.877Z,1.77
2022-11-09T03:57:31.424Z,2.17
2022-11-09T03:59:57.835Z,2.17
2022-11-09T04:02:24.264Z,1.38
2022-11-09T04:04:50.670Z,1.15
2022-11-09T04:07:17.172Z,2.10
2022-11-09T04:09:43.643Z,1.75
2022-11-09T04:12:10.099Z,1.33
2022-11-09T04:14:36.519Z,1.30
2022-11-09T04:17:02.974Z,2.63
2022-11-09T04:19:29.382Z,2.45
2022-11-09T04:21:55.789Z,1.85
2022-11-09T04:24:22.185Z,2.92
2022-11-09T04:26:48.632Z,2.55
2022-11-09T04:29:15.036Z,1.48
2022-11-09T04:31:41.435Z,3.97
2022-11-09T04:34:08.186Z,2.47
2022-11-09T04:36:34.646Z,2.10
2022-11-09T04:39:01.041Z,1.17
2022-11-09T04:41:28.193Z,1.50
2022-11-09T04:43:54.588Z,1.73
2022-11-09T04:46:20.988Z,2.15
2022-11-09T04:48:47.420Z,1.55
2022-11-09T04:51:13.964Z,1.83
2022-11-09T04:53:41.542Z,1.75
2022-11-09T04:56:08.390Z,1.33
2022-11-09T04:58:34.899Z,1.40
2022-11-09T05:01:05.790Z,1.40
2022-11-09T05:03:32.319Z,1.38
2022-11-09T05:05:58.824Z,5.75
2022-11-09T05:08:25.392Z,1.48
2022-11-09T05:10:51.807Z,1.98
2022-11-09T05:13:18.443Z,3.25
2022-11-09T05:15:45.040Z,2.38
2022-11-09T05:18:11.457Z,1.60
2022-11-09T05:20:37.905Z,3.72
2022-11-09T05:23:23.444Z,3.38
2022-11-09T05:25:50.125Z,2.20
2022-11-09T05:28:16.606Z,1.65
2022-11-09T05:30:43.056Z,3.88
2022-11-09T05:33:09.459Z,3.20
2022-11-09T05:35:35.857Z,1.92
2022-11-09T05:38:02.270Z,2.10
2022-11-09T05:40:28.709Z,1.40
2022-11-09T05:42:56.595Z,2.50
2022-11-09T05:48:13.695Z,2.35
2022-11-09T05:50:41.218Z,1.40
2022-11-09T05:53:08.151Z,1.88
2022-11-09T05:55:34.868Z,2.22
2022-11-09T05:58:01.335Z,2.63
2022-11-09T06:00:28.335Z,2.22
2022-11-09T06:02:54.800Z,1.95
2022-11-09T06:05:21.606Z,2.85
2022-11-09T06:07:48.054Z,2.88
2022-11-09T06:10:14.492Z,2.45
2022-11-09T06:12:40.916Z,2.33
2022-11-09T06:15:07.803Z,2.30
2022-11-09T06:17:34.231Z,2.72
2022-11-09T06:20:00.656Z,3.63
2022-11-09T06:22:27.088Z,4.30
2022-11-09T06:24:53.527Z,2.78
2022-11-09T06:27:19.990Z,2.70
2022-11-09T06:29:46.552Z,2.65
2022-11-09T06:32:12.966Z,2.28
2022-11-09T06:34:39.384Z,2.28
2022-11-09T06:37:05.784Z,1.45
2022-11-09T06:39:32.169Z,2.75
2022-11-09T06:41:58.589Z,1.80
2022-11-09T06:44:24.981Z,2.05
2022-11-09T06:46:51.392Z,2.40
2022-11-09T06:49:17.787Z,2.50
2022-11-09T06:51:44.215Z,3.55
2022-11-09T06:54:10.665Z,4.13
2022-11-09T06:56:37.084Z,3.22
2022-11-09T06:59:03.515Z,3.00
2022-11-09T07:01:30.038Z,1.60
2022-11-09T07:03:56.700Z,2.58
2022-11-09T07:06:23.201Z,1.92
2022-11-09T07:08:49.905Z,2.33
2022-11-09T07:11:16.816Z,2.90
2022-11-09T07:13:43.237Z,3.10
2022-11-09T07:16:11.981Z,1.98
2022-11-09T07:18:38.653Z,2.00
2022-11-09T07:21:10.078Z,2.63
2022-11-09T07:23:40.607Z,2.10
2022-11-09T07:26:07.222Z,1.85
2022-11-09T07:28:34.013Z,2.22
2022-11-09T07:31:01.037Z,2.58
2022-11-09T07:33:30.290Z,5.03
2022-11-09T07:35:58.789Z,1.30
2022-11-09T07:38:25.324Z,5.05
2022-11-09T07:40:52.000Z,1.67
2022-11-09T07:43:18.961Z,1.70
2022-11-09T07:45:45.669Z,3.25
2022-11-09T07:48:12.770Z,2.13
2022-11-09T07:50:40.247Z,1.77
2022-11-09T07:53:07.289Z,2.33
2022-11-09T07:55:34.809Z,1.48
2022-11-09T07:58:21.465Z,1.73
2022-11-09T08:00:47.904Z,1.45
2022-11-09T08:03:14.324Z,5.53
2022-11-09T08:05:40.979Z,2.88
2022-11-09T08:08:09.128Z,1.60
2022-11-09T08:10:36.212Z,3.13
2022-11-09T08:13:05.295Z,1.88
2022-11-09T08:15:32.232Z,2.05
2022-11-09T08:18:00.875Z,1.63
2022-11-09T08:20:27.454Z,3.78
2022-11-09T08:22:54.015Z,1.00
2022-11-09T08:25:20.474Z,4.30
2022-11-09T08:27:46.949Z,1.38
2022-11-09T08:30:19.451Z,2.33
2022-11-09T08:32:46.625Z,2.15
2022-11-09T08:35:17.703Z,1.70
2022-11-09T08:37:45.449Z,1.70
2022-11-09T08:40:11.889Z,1.10
2022-11-09T08:42:38.331Z,2.50
2022-11-09T08:45:05.673Z,3.08
2022-11-09T08:47:32.090Z,1.23
2022-11-09T08:49:58.509Z,0.88
2022-11-09T08:52:24.930Z,1.48
2022-11-09T08:54:51.362Z,1.52
2022-11-09T08:57:19.213Z,1.10
2022-11-09T08:59:46.462Z,1.20
2022-11-09T09:02:15.636Z,1.17
2022-11-09T09:04:42.154Z,3.65
2022-11-09T09:07:08.640Z,1.58
2022-11-09T09:09:35.440Z,2.38
2022-11-09T09:12:01.856Z,0.98
2022-11-09T09:14:28.327Z,1.73
2022-11-09T09:16:54.956Z,1.48
2022-11-09T09:19:21.592Z,1.00
2022-11-09T09:21:47.982Z,2.58
2022-11-09T09:24:14.399Z,1.98
2022-11-09T09:26:40.834Z,1.00
2022-11-09T09:29:07.258Z,2.63
2022-11-09T09:31:33.674Z,1.10
2022-11-09T09:34:00.097Z,1.80
2022-11-09T09:36:26.497Z,2.22
2022-11-09T09:38:53.955Z,1.35
2022-11-09T09:41:28.926Z,2.45
2022-11-09T09:43:58.983Z,2.35
2022-11-09T09:46:28.427Z,1.63
2022-11-09T09:48:58.574Z,1.15
2022-11-09T09:51:30.236Z,1.42
2022-11-09T09:54:01.532Z,1.27
2022-11-09T09:56:34.690Z,1.00
2022-11-09T09:59:34.983Z,1.27
2022-11-09T10:02:01.401Z,1.40
2022-11-09T10:04:36.770Z,1.40
2022-11-09T10:07:09.461Z,1.15
2022-11-09T10:10:00.332Z,2.03
2022-11-09T10:12:32.830Z,1.05
2022-11-09T10:15:10.004Z,1.20
2022-11-09T10:18:04.962Z,1.25
2022-11-09T10:20:58.675Z,1.02
2022-11-09T10:23:52.831Z,1.13
2022-11-09T10:26:23.909Z,1.02
2022-11-09T10:29:15.235Z,1.02
2022-11-09T10:31:42.636Z,0.93
2022-11-09T10:34:21.232Z,1.05
2022-11-09T10:36:51.889Z,2.15
2022-11-09T10:39:18.703Z,0.60
2022-11-09T10:41:48.422Z,0.70
2022-11-09T10:44:17.889Z,0.60
2022-11-09T10:47:10.450Z,1.27
2022-11-09T10:49:37.868Z,1.42
2022-11-09T10:52:05.540Z,1.42
2022-11-09T10:54:37.766Z,0.60
2022-11-09T10:57:15.366Z,0.70
2022-11-09T10:59:56.380Z,1.52
2022-11-09T11:02:25.968Z,1.20
2022-11-09T11:05:17.890Z,1.42
2022-11-09T11:07:45.662Z,1.40
2022-11-09T11:10:14.962Z,1.15
2022-11-09T11:12:42.624Z,1.10
2022-11-09T11:15:25.800Z,1.52
2022-11-09T11:18:00.761Z,1.10
2022-11-09T11:20:32.605Z,0.90
2022-11-09T11:23:11.207Z,1.10
2022-11-09T11:25:58.501Z,1.90
2022-11-09T11:28:52.360Z,1.88
2022-11-09T11:31:20.336Z,1.58
2022-11-09T11:33:47.189Z,1.40
2022-11-09T11:36:25.750Z,1.77
2022-11-09T11:39:27.020Z,2.15
2022-11-09T11:42:27.570Z,1.70
2022-11-09T11:45:39.547Z,1.77
2022-11-09T11:48:21.944Z,1.00
2022-11-09T11:50:54.180Z,2.78
2022-11-09T11:53:31.604Z,1.30
2022-11-09T11:56:08.050Z,1.27
2022-11-09T11:58:53.222Z,0.85
2022-11-09T12:01:31.691Z,1.08
2022-11-09T12:04:15.984Z,1.38
2022-11-09T12:06:57.800Z,1.05
2022-11-09T12:10:08.367Z,0.82
2022-11-09T12:13:19.356Z,1.60
2022-11-09T12:15:59.861Z,1.08
2022-11-09T12:19:03.962Z,0.50
2022-11-09T12:21:42.412Z,1.42
2022-11-09T12:24:20.476Z,2.45
2022-11-09T12:27:31.601Z,0.90
2022-11-09T12:30:15.726Z,1.65
2022-11-09T12:32:54.417Z,2.75
2022-11-09T12:35:20.804Z,0.85
2022-11-09T12:38:03.671Z,1.17
2022-11-09T12:40:34.107Z,0.57
2022-11-09T12:43:35.034Z,0.98
2022-11-09T12:46:02.705Z,2.58
2022-11-09T12:48:32.137Z,1.85
2022-11-09T12:50:59.937Z,2.05
2022-11-09T12:53:29.011Z,0.68
2022-11-09T12:56:06.151Z,1.48
2022-11-09T12:58:34.239Z,0.60
2022-11-09T13:01:43.992Z,1.08
2022-11-09T13:04:17.740Z,1.45
2022-11-09T13:07:04.135Z,0.57
2022-11-09T13:09:44.059Z,0.93
2022-11-09T13:12:35.083Z,2.50
2022-11-09T13:15:24.820Z,1.60
2022-11-09T13:17:55.985Z,0.40
2022-11-09T13:20:53.921Z,0.65
2022-11-09T13:23:47.642Z,1.08
2022-11-09T13:26:44.807Z,0.50
2022-11-09T13:29:41.633Z,1.27
2022-11-09T13:32:11.168Z,0.60
2022-11-09T13:34:46.588Z,0.70
2022-11-09T13:37:34.362Z,0.50
2022-11-09T13:40:00.817Z,0.50
2022-11-09T13:42:32.899Z,0.50
2022-11-09T13:45:35.929Z,0.45
2022-11-09T13:48:02.867Z,0.98
2022-11-09T13:50:30.752Z,0.77
2022-11-09T13:52:59.073Z,1.65
2022-11-09T13:55:31.051Z,1.42
2022-11-09T13:58:28.862Z,2.17
2022-11-09T14:00:55.409Z,1.00
2022-11-09T14:03:24.903Z,2.33
2022-11-09T14:05:54.342Z,0.95
2022-11-09T14:08:26.268Z,3.40
2022-11-09T14:11:18.209Z,1.98
2022-11-09T14:14:03.161Z,0.50
2022-11-09T14:16:42.435Z,0.95
2022-11-09T14:19:27.613Z,0.80
2022-11-09T14:21:54.358Z,0.60
2022-11-09T14:24:29.488Z,0.93
2022-11-09T14:27:04.833Z,1.52
2022-11-09T14:29:33.123Z,2.05
2022-11-09T14:32:16.824Z,1.08
2022-11-09T14:34:43.282Z,0.68
2022-11-09T14:37:11.920Z,0.70
2022-11-09T14:39:38.839Z,1.15
2022-11-09T14:42:12.345Z,1.10
2022-11-09T14:44:48.390Z,0.77
2022-11-09T14:47:31.013Z,1.63
2022-11-09T14:49:58.398Z,1.25
2022-11-09T14:52:28.531Z,0.98
2022-11-09T14:54:55.125Z,1.85
2022-11-09T14:57:23.059Z,0.73
2022-11-09T14:59:49.634Z,1.17
2022-11-09T15:02:18.377Z,0.80
2022-11-09T15:05:29.797Z,0.50
2022-11-09T15:07:56.359Z,0.77
2022-11-09T15:10:24.201Z,0.65
2022-11-09T15:12:54.948Z,1.63
2022-11-09T15:15:24.849Z,1.15
2022-11-09T15:17:51.998Z,1.92
2022-11-09T15:20:18.376Z,2.40
2022-11-09T15:22:55.234Z,2.28
2022-11-09T15:25:43.444Z,1.55
2022-11-09T15:28:12.871Z,1.15
2022-11-09T15:30:46.129Z,1.75
2022-11-09T15:33:24.245Z,2.78
2022-11-09T15:35:59.768Z,2.20
2022-11-09T15:38:35.424Z,1.73
2022-11-09T15:41:03.517Z,1.70
2022-11-09T15:43:30.150Z,1.67
2022-11-09T15:45:57.481Z,0.70
2022-11-09T15:48:24.062Z,2.03
2022-11-09T15:50:50.552Z,2.53
2022-11-09T15:53:17.032Z,1.70
2022-11-09T15:55:43.534Z,1.20
2022-11-09T15:58:14.324Z,1.15
2022-11-09T16:00:41.529Z,2.38
2022-11-09T16:03:08.819Z,4.43
2022-11-09T16:05:35.263Z,7.20
2022-11-09T16:08:01.894Z,7.10
2022-11-09T16:10:30.382Z,6.05
2022-11-09T16:12:57.362Z,7.20
2022-11-09T16:15:24.357Z,9.15
2022-11-09T16:17:52.813Z,11.45
2022-11-09T16:20:20.249Z,8.95
2022-11-09T16:22:47.212Z,9.57
2022-11-09T16:25:14.296Z,5.88
2022-11-09T16:27:50.225Z,3.80
2022-11-09T16:30:17.873Z,4.70
2022-11-09T16:32:44.341Z,4.95
2022-11-09T16:35:28.000Z,2.90
2022-11-09T16:37:55.793Z,2.25
2022-11-09T16:40:22.353Z,2.00
2022-11-09T16:42:49.232Z,1.73
2022-11-09T16:45:16.214Z,1.67
2022-11-09T16:47:47.626Z,6.70
2022-11-09T16:50:14.195Z,6.60
2022-11-09T16:52:40.664Z,3.13
2022-11-09T16:55:09.414Z,1.92
2022-11-09T16:57:36.165Z,5.25
2022-11-09T17:00:04.135Z,4.65
2022-11-09T17:02:30.614Z,5.15
2022-11-09T17:04:57.279Z,4.50
2022-11-09T17:07:23.749Z,5.38
2022-11-09T17:09:50.201Z,3.90
2022-11-09T17:12:16.691Z,4.35
2022-11-09T17:14:43.205Z,3.25
2022-11-09T17:17:09.725Z,4.43
2022-11-09T17:19:36.614Z,2.20
2022-11-09T17:22:04.480Z,2.33
2022-11-09T17:24:31.926Z,3.13
2022-11-09T17:26:58.552Z,3.30
2022-11-09T17:29:25.073Z,1.77
2022-11-09T17:31:51.685Z,1.55
2022-11-09T17:34:18.331Z,1.65
2022-11-09T17:39:31.298Z,1.65
2022-11-09T17:41:57.852Z,1.58
2022-11-09T17:44:24.293Z,1.92
2022-11-09T17:46:50.783Z,1.55
2022-11-09T17:49:17.273Z,2.28
2022-11-09T17:51:43.774Z,1.83
2022-11-09T17:54:10.340Z,1.98
2022-11-09T17:56:36.846Z,4.63
2022-11-09T17:59:04.967Z,3.15
2022-11-09T18:01:35.097Z,1.92
2022-11-09T18:04:09.679Z,2.42
2022-11-09T18:06:36.637Z,1.60
2022-11-09T18:09:39.672Z,2.78
2022-11-09T18:11:50.467Z,2.33
2022-11-09T18:14:17.069Z,2.15
2022-11-09T18:16:43.634Z,1.92
2022-11-09T18:19:10.088Z,6.20
2022-11-09T18:21:36.528Z,2.65
2022-11-09T18:24:03.100Z,1.42
2022-11-09T18:26:31.287Z,1.55
2022-11-09T18:28:57.778Z,1.42
2022-11-09T18:31:24.571Z,1.88
2022-11-09T18:33:51.343Z,1.85
2022-11-09T18:36:19.757Z,1.33
2022-11-09T18:38:46.434Z,1.38
2022-11-09T18:41:15.463Z,2.42
2022-11-09T18:43:42.110Z,1.73
2022-11-09T18:46:10.502Z,2.45
2022-11-09T18:48:37.661Z,2.63
2022-11-09T18:51:05.499Z,2.60
2022-11-09T18:53:40.383Z,1.98
2022-11-09T18:56:10.390Z,1.85
2022-11-09T18:58:36.908Z,1.77
2022-11-09T19:01:07.851Z,2.17
2022-11-09T19:03:34.639Z,1.63
2022-11-09T19:06:28.291Z,2.85
2022-11-09T19:09:15.749Z,1.27
2022-11-09T19:11:43.488Z,1.90
2022-11-09T19:14:10.927Z,3.70
2022-11-09T19:16:38.548Z,1.25
2022-11-09T19:19:07.289Z,2.35
2022-11-09T19:21:40.195Z,2.65
2022-11-09T19:24:08.037Z,2.05
2022-11-09T19:26:35.245Z,3.15
2022-11-09T19:29:01.711Z,2.60
2022-11-09T19:31:28.353Z,2.80
2022-11-09T19:33:55.029Z,5.55
2022-11-09T19:36:30.399Z,3.85
2022-11-09T19:38:58.741Z,2.13
2022-11-09T19:41:26.387Z,2.58
2022-11-09T19:43:54.804Z,2.17
2022-11-09T19:46:21.813Z,2.05
2022-11-09T19:48:48.364Z,2.58
2022-11-09T19:51:15.970Z,3.60
2022-11-09T19:53:42.934Z,1.90
2022-11-09T19:56:11.547Z,1.70
2022-11-09T19:58:38.850Z,3.20
2022-11-09T20:01:08.099Z,3.28
2022-11-09T20:03:35.406Z,2.97
2022-11-09T20:06:02.528Z,1.85
2022-11-09T20:08:32.399Z,1.20
2022-11-09T20:11:07.607Z,1.75
2022-11-09T20:13:34.627Z,2.47
2022-11-09T20:16:03.207Z,1.92
2022-11-09T20:18:30.258Z,2.88
2022-11-09T20:20:56.818Z,2.10
2022-11-09T20:23:23.245Z,2.22
2022-11-09T20:25:50.661Z,2.97
2022-11-09T20:28:17.136Z,2.22
2022-11-09T20:30:44.553Z,2.00
2022-11-09T20:33:10.969Z,2.97
2022-11-09T20:35:37.376Z,2.30
2022-11-09T20:38:03.803Z,4.18
2022-11-09T20:40:30.221Z,2.00
2022-11-09T20:42:56.644Z,1.30
2022-11-09T20:45:23.052Z,4.25
2022-11-09T20:48:07.539Z,2.80
2022-11-09T20:50:36.430Z,1.67
2022-11-09T20:53:03.932Z,2.13
2022-11-09T20:55:30.460Z,1.40
2022-11-09T20:57:56.852Z,3.15
2022-11-09T21:00:24.670Z,2.75
2022-11-09T21:02:51.260Z,1.98
2022-11-09T21:05:17.781Z,2.22
2022-11-09T21:07:45.437Z,2.08
2022-11-09T21:10:11.844Z,2.13
2022-11-09T21:12:38.249Z,4.38
2022-11-09T21:15:05.126Z,5.10
2022-11-09T21:17:31.749Z,1.85
2022-11-09T21:19:58.208Z,2.10
2022-11-09T21:22:44.567Z,1.80
2022-11-09T21:25:29.589Z,3.65
2022-11-09T21:28:14.685Z,2.90
2022-11-09T21:30:41.087Z,2.03
2022-11-09T21:33:07.541Z,1.92
2022-11-09T21:35:33.979Z,4.20
2022-11-09T21:38:00.385Z,4.47
2022-11-09T21:40:27.796Z,2.15
2022-11-09T21:42:55.432Z,2.28
2022-11-09T21:45:21.842Z,2.38
2022-11-09T21:47:48.284Z,3.40
2022-11-09T21:50:14.726Z,3.63
2022-11-09T21:52:41.132Z,2.95
2022-11-09T21:55:07.805Z,2.83
2022-11-09T21:57:34.261Z,2.65
2022-11-09T22:00:00.699Z,2.30
2022-11-09T22:02:27.088Z,1.90
2022-11-09T22:04:53.510Z,1.38
2022-11-09T22:07:19.913Z,1.98
2022-11-09T22:10:09.408Z,3.58
2022-11-09T22:12:56.323Z,2.38
2022-11-09T22:15:41.460Z,1.27
2022-11-09T22:18:07.936Z,3.83
2022-11-09T22:20:52.879Z,4.07
2022-11-09T22:23:19.537Z,3.03
2022-11-09T22:25:48.073Z,6.95
2022-11-09T22:28:14.640Z,3.63
2022-11-09T22:30:41.301Z,3.83
2022-11-09T22:33:07.774Z,3.30
2022-11-09T22:35:34.225Z,2.83
2022-11-09T22:38:01.901Z,4.32
2022-11-09T22:40:28.342Z,5.15
2022-11-09T22:42:55.943Z,4.80
2022-11-09T22:45:22.371Z,3.40
2022-11-09T22:47:48.885Z,3.58
2022-11-09T22:50:15.446Z,2.95
2022-11-09T22:52:41.950Z,2.42
2022-11-09T22:55:08.829Z,2.83
2022-11-09T22:57:37.042Z,2.13
2022-11-09T23:00:04.081Z,2.90
2022-11-09T23:02:30.493Z,1.58
2022-11-09T23:04:56.893Z,3.55
2022-11-09T23:07:23.311Z,2.25
2022-11-09T23:09:49.725Z,1.77
2022-11-09T23:12:16.124Z,3.40
2022-11-09T23:15:01.068Z,1.92
2022-11-09T23:17:46.015Z,2.35
2022-11-09T23:20:12.455Z,2.97
2022-11-09T23:22:38.851Z,1.42
2022-11-09T23:25:24.397Z,4.93
2022-11-09T23:27:51.939Z,1.40
2022-11-09T23:30:19.048Z,2.53
2022-11-09T23:32:45.565Z,3.10
2022-11-09T23:35:11.997Z,3.47
2022-11-09T23:37:38.405Z,4.10
2022-11-09T23:40:05.388Z,2.22
2022-11-09T23:42:31.943Z,2.72
2022-11-09T23:44:58.379Z,5.57
2022-11-09T23:47:24.772Z,7.10
2022-11-09T23:49:51.213Z,2.17
2022-11-09T23:52:17.642Z,3.30
2022-11-09T23:54:45.563Z,2.25
2022-11-09T23:57:12.631Z,3.03
2022-11-09T23:59:39.174Z,1.67
